createdAt,value
2019-05-14T00:00:35.416Z,21.00
2019-05-14T00:01:35.416Z,21.40
2019-05-14T00:02:35.397Z,21.00
2019-05-14T00:03:35.386Z,21.10
2019-05-14T00:04:35.380Z,20.80
2019-05-14T00:05:35.366Z,20.90
2019-05-14T00:06:35.382Z,20.90
2019-05-14T00:07:35.362Z,21.20
2019-05-14T00:08:35.335Z,20.50
2019-05-14T00:09:35.321Z,19.90
2019-05-14T00:10:35.312Z,20.20
2019-05-14T00:11:35.293Z,19.80
2019-05-14T00:12:35.291Z,19.90
2019-05-14T00:13:35.272Z,20.50
2019-05-14T00:14:39.675Z,20.10
2019-05-14T00:15:36.272Z,20.20
2019-05-14T00:16:35.237Z,20.20
2019-05-14T00:17:35.245Z,20.30
2019-05-14T00:18:35.217Z,20.40
2019-05-14T00:19:35.211Z,20.10
2019-05-14T00:20:35.210Z,20.70
2019-05-14T00:21:35.184Z,19.80
2019-05-14T00:22:35.178Z,20.60
2019-05-14T00:23:35.224Z,20.00
2019-05-14T00:24:35.156Z,20.20
2019-05-14T00:25:35.159Z,19.80
2019-05-14T00:26:35.134Z,20.10
2019-05-14T00:27:35.120Z,20.40
2019-05-14T00:28:35.114Z,19.80
2019-05-14T00:29:35.105Z,19.60
2019-05-14T00:30:35.092Z,19.40
2019-05-14T00:31:35.082Z,19.80
2019-05-14T00:32:35.065Z,19.50
2019-05-14T00:33:35.072Z,19.70
2019-05-14T00:34:35.042Z,19.60
2019-05-14T00:35:35.833Z,19.60
2019-05-14T00:36:35.033Z,19.40
2019-05-14T00:37:35.026Z,19.90
2019-05-14T00:38:35.005Z,19.80
2019-05-14T00:39:35.038Z,19.40
2019-05-14T00:40:34.978Z,19.50
2019-05-14T00:41:34.984Z,19.40
2019-05-14T00:42:34.958Z,19.90
2019-05-14T00:43:34.972Z,19.90
2019-05-14T00:44:34.940Z,19.70
2019-05-14T00:45:34.933Z,19.10
2019-05-14T00:46:34.915Z,19.80
2019-05-14T00:47:34.926Z,19.80
2019-05-14T00:48:34.899Z,19.60
2019-05-14T00:49:34.884Z,19.90
2019-05-14T00:50:34.873Z,19.80
2019-05-14T00:51:34.864Z,19.40
2019-05-14T00:52:34.859Z,20.00
2019-05-14T00:53:34.845Z,20.10
2019-05-14T00:54:34.826Z,19.90
2019-05-14T00:55:34.831Z,19.30
2019-05-14T00:56:34.826Z,19.70
2019-05-14T00:57:34.803Z,19.40
2019-05-14T00:58:34.787Z,19.40
2019-05-14T00:59:34.775Z,19.70
2019-05-14T01:00:34.793Z,19.60
2019-05-14T01:01:34.753Z,19.60
2019-05-14T01:02:34.738Z,19.50
2019-05-14T01:03:34.733Z,19.40
2019-05-14T01:04:34.718Z,19.60
2019-05-14T01:05:34.706Z,19.60
2019-05-14T01:06:34.734Z,19.40
2019-05-14T01:07:34.687Z,19.60
2019-05-14T01:08:34.689Z,19.70
2019-05-14T01:09:34.666Z,19.90
2019-05-14T01:10:34.654Z,19.90
2019-05-14T01:11:34.637Z,20.10
2019-05-14T01:12:34.640Z,20.20
2019-05-14T01:13:34.633Z,19.60
2019-05-14T01:14:34.609Z,19.40
2019-05-14T01:15:34.598Z,19.20
2019-05-14T01:16:34.589Z,19.60
2019-05-14T01:17:34.571Z,19.70
2019-05-14T01:18:34.564Z,19.40
2019-05-14T01:19:34.571Z,19.60
2019-05-14T01:20:34.544Z,19.30
2019-05-14T01:21:34.532Z,19.80
2019-05-14T01:22:34.516Z,19.50
2019-05-14T01:23:34.516Z,19.90
2019-05-14T01:24:34.501Z,19.70
2019-05-14T01:25:34.485Z,19.50
2019-05-14T01:26:34.474Z,20.20
2019-05-14T01:27:34.499Z,20.00
2019-05-14T01:28:34.453Z,20.20
2019-05-14T01:29:34.445Z,19.40
2019-05-14T01:30:34.430Z,19.60
2019-05-14T01:31:34.421Z,19.70
2019-05-14T01:32:34.428Z,19.60
2019-05-14T01:33:34.735Z,19.10
2019-05-14T01:34:34.394Z,20.20
2019-05-14T01:35:34.376Z,19.40
2019-05-14T01:36:34.370Z,19.70
2019-05-14T01:37:34.354Z,19.60
2019-05-14T01:38:34.344Z,19.00
2019-05-14T01:39:34.341Z,19.50
2019-05-14T01:40:34.322Z,19.40
2019-05-14T01:41:34.312Z,20.00
2019-05-14T01:42:34.331Z,19.50
2019-05-14T01:43:34.294Z,19.90
2019-05-14T01:44:34.292Z,19.30
2019-05-14T01:45:34.269Z,20.10
2019-05-14T01:46:34.262Z,19.90
2019-05-14T01:47:34.250Z,20.00
2019-05-14T01:48:34.240Z,19.50
2019-05-14T01:49:34.235Z,19.90
2019-05-14T01:50:34.216Z,19.70
2019-05-14T01:51:34.202Z,19.80
2019-05-14T01:52:34.195Z,20.10
2019-05-14T01:53:34.180Z,20.00
2019-05-14T01:54:34.172Z,20.00
2019-05-14T01:55:34.204Z,19.70
2019-05-14T01:56:34.146Z,20.20
2019-05-14T01:57:34.137Z,19.90
2019-05-14T01:58:34.127Z,19.30
2019-05-14T01:59:34.117Z,19.80
2019-05-14T02:00:34.107Z,19.80
2019-05-14T02:01:34.100Z,19.80
2019-05-14T02:02:34.086Z,20.00
2019-05-14T02:03:34.070Z,19.50
2019-05-14T02:04:34.067Z,19.60
2019-05-14T02:05:34.096Z,19.70
2019-05-14T02:06:34.046Z,19.60
2019-05-14T02:07:34.031Z,19.80
2019-05-14T02:08:34.022Z,19.40
2019-05-14T02:09:34.010Z,19.60
2019-05-14T02:10:33.998Z,19.60
2019-05-14T02:11:33.991Z,19.30
2019-05-14T02:12:33.977Z,19.50
2019-05-14T02:13:33.966Z,19.40
2019-05-14T02:14:33.955Z,19.60
2019-05-14T02:15:39.152Z,19.50
2019-05-14T02:16:34.948Z,19.70
2019-05-14T02:17:33.922Z,19.70
2019-05-14T02:18:33.928Z,19.70
2019-05-14T02:19:33.899Z,19.60
2019-05-14T02:20:33.885Z,19.40
2019-05-14T02:21:33.882Z,19.90
2019-05-14T02:22:33.870Z,20.00
2019-05-14T02:23:33.858Z,19.60
2019-05-14T02:24:34.193Z,19.30
2019-05-14T02:25:33.828Z,19.70
2019-05-14T02:26:33.824Z,20.00
2019-05-14T02:27:34.991Z,19.70
2019-05-14T02:28:33.800Z,19.60
2019-05-14T02:29:33.788Z,19.50
2019-05-14T02:30:48.384Z,19.70
2019-05-14T02:31:34.760Z,19.00
2019-05-14T02:32:33.750Z,19.60
2019-05-14T02:33:33.949Z,19.70
2019-05-14T02:34:33.738Z,19.30
2019-05-14T02:35:33.728Z,19.30
2019-05-14T02:36:33.711Z,19.40
2019-05-14T02:37:33.696Z,19.60
2019-05-14T02:38:33.696Z,19.60
2019-05-14T02:39:33.689Z,19.20
2019-05-14T02:40:33.668Z,19.20
2019-05-14T02:41:33.656Z,19.30
2019-05-14T02:42:33.643Z,19.60
2019-05-14T02:43:33.654Z,19.70
2019-05-14T02:44:33.640Z,19.40
2019-05-14T02:45:33.613Z,19.30
2019-05-14T02:46:33.602Z,19.70
2019-05-14T02:47:33.591Z,19.80
2019-05-14T02:48:33.576Z,19.40
2019-05-14T02:49:33.574Z,19.50
2019-05-14T02:50:33.561Z,19.30
2019-05-14T02:51:33.548Z,19.80
2019-05-14T02:52:33.533Z,19.60
2019-05-14T02:53:33.527Z,19.50
2019-05-14T02:54:33.529Z,19.70
2019-05-14T02:55:33.503Z,19.70
2019-05-14T02:56:33.487Z,19.90
2019-05-14T02:57:33.492Z,20.10
2019-05-14T02:58:33.477Z,20.00
2019-05-14T02:59:33.499Z,19.60
2019-05-14T03:00:33.450Z,19.90
2019-05-14T03:01:33.437Z,19.70
2019-05-14T03:02:33.429Z,19.90
2019-05-14T03:03:33.425Z,19.90
2019-05-14T03:04:33.403Z,20.40
2019-05-14T03:05:33.395Z,20.30
2019-05-14T03:06:33.383Z,20.50
2019-05-14T03:07:33.393Z,20.10
2019-05-14T03:08:33.355Z,20.30
2019-05-14T03:09:33.356Z,20.10
2019-05-14T03:10:33.343Z,20.60
2019-05-14T03:11:33.321Z,20.40
2019-05-14T03:12:33.311Z,20.20
2019-05-14T03:13:33.297Z,20.20
2019-05-14T03:14:33.288Z,20.60
2019-05-14T03:15:33.291Z,20.40
2019-05-14T03:16:35.840Z,20.30
2019-05-14T03:17:33.255Z,20.60
2019-05-14T03:18:33.249Z,20.80
2019-05-14T03:19:33.237Z,20.80
2019-05-14T03:20:33.231Z,20.10
2019-05-14T03:21:33.231Z,20.50
2019-05-14T03:22:46.729Z,20.40
2019-05-14T03:23:34.197Z,20.50
2019-05-14T03:24:33.176Z,20.00
2019-05-14T03:25:33.173Z,20.40
2019-05-14T03:26:33.209Z,20.60
2019-05-14T03:27:33.153Z,20.10
2019-05-14T03:28:33.135Z,20.70
2019-05-14T03:29:33.124Z,20.30
2019-05-14T03:30:33.353Z,20.10
2019-05-14T03:31:34.088Z,20.00
2019-05-14T03:32:33.573Z,20.00
2019-05-14T03:33:34.351Z,20.20
2019-05-14T03:34:33.890Z,20.40
2019-05-14T03:35:42.316Z,20.50
2019-05-14T03:36:35.497Z,20.20
2019-05-14T03:37:33.038Z,20.90
2019-05-14T03:38:33.048Z,20.80
2019-05-14T03:39:33.028Z,20.80
2019-05-14T03:40:33.006Z,20.40
2019-05-14T03:41:32.996Z,20.70
2019-05-14T03:42:32.980Z,20.60
2019-05-14T03:43:33.005Z,20.70
2019-05-14T03:44:32.958Z,20.90
2019-05-14T03:45:32.947Z,20.90
2019-05-14T03:46:45.775Z,21.10
2019-05-14T03:47:33.935Z,21.00
2019-05-14T03:48:32.919Z,21.00
2019-05-14T03:49:32.918Z,20.70
2019-05-14T03:50:32.892Z,21.10
2019-05-14T03:51:32.883Z,21.20
2019-05-14T03:52:32.873Z,21.20
2019-05-14T03:53:50.673Z,20.90
2019-05-14T03:54:33.883Z,21.30
2019-05-14T03:55:32.837Z,21.70
2019-05-14T03:56:32.827Z,21.30
2019-05-14T03:57:32.821Z,21.60
2019-05-14T03:58:32.811Z,21.00
2019-05-14T03:59:32.974Z,21.50
2019-05-14T04:00:32.828Z,21.50
2019-05-14T04:01:32.823Z,22.30
2019-05-14T04:02:32.768Z,21.50
2019-05-14T04:03:32.769Z,21.70
2019-05-14T04:04:32.753Z,22.40
2019-05-14T04:05:32.729Z,22.40
2019-05-14T04:06:32.742Z,22.10
2019-05-14T04:07:32.710Z,21.40
2019-05-14T04:08:32.695Z,21.90
2019-05-14T04:09:32.691Z,22.40
2019-05-14T04:10:32.682Z,22.30
2019-05-14T04:11:32.701Z,22.20
2019-05-14T04:12:32.656Z,22.50
2019-05-14T04:13:32.657Z,22.30
2019-05-14T04:14:32.642Z,22.20
2019-05-14T04:15:32.618Z,22.20
2019-05-14T04:16:32.618Z,22.00
2019-05-14T04:17:37.818Z,22.00
2019-05-14T04:18:33.584Z,22.20
2019-05-14T04:19:32.611Z,22.60
2019-05-14T04:20:32.578Z,22.30
2019-05-14T04:21:32.557Z,22.40
2019-05-14T04:22:32.567Z,21.50
2019-05-14T04:23:32.532Z,21.80
2019-05-14T04:24:36.429Z,22.30
2019-05-14T04:25:32.521Z,22.60
2019-05-14T04:26:50.919Z,21.80
2019-05-14T04:27:33.500Z,22.50
2019-05-14T04:28:32.489Z,21.70
2019-05-14T04:29:32.493Z,21.90
2019-05-14T04:30:32.458Z,21.70
2019-05-14T04:31:32.454Z,21.70
2019-05-14T04:32:32.494Z,21.80
2019-05-14T04:33:32.428Z,22.00
2019-05-14T04:34:32.465Z,21.40
2019-05-14T04:35:32.407Z,21.90
2019-05-14T04:36:32.389Z,21.20
2019-05-14T04:37:32.391Z,21.20
2019-05-14T04:38:32.418Z,21.50
2019-05-14T04:39:32.369Z,21.80
2019-05-14T04:40:32.349Z,21.60
2019-05-14T04:41:32.346Z,21.10
2019-05-14T04:42:32.343Z,21.70
2019-05-14T04:43:32.309Z,21.50
2019-05-14T04:44:32.305Z,21.40
2019-05-14T04:45:32.290Z,21.20
2019-05-14T04:46:32.282Z,21.50
2019-05-14T04:47:37.252Z,21.70
2019-05-14T04:48:37.651Z,21.50
2019-05-14T04:49:33.263Z,21.70
2019-05-14T04:50:32.232Z,21.60
2019-05-14T04:51:32.230Z,21.70
2019-05-14T04:52:32.217Z,21.20
2019-05-14T04:53:32.200Z,21.50
2019-05-14T04:54:32.235Z,21.20
2019-05-14T04:55:32.208Z,21.30
2019-05-14T04:56:32.168Z,22.00
2019-05-14T04:57:32.158Z,21.30
2019-05-14T04:58:32.150Z,21.50
2019-05-14T04:59:32.135Z,20.80
2019-05-14T05:00:32.139Z,21.70
2019-05-14T05:01:32.117Z,21.50
2019-05-14T05:02:32.104Z,21.90
2019-05-14T05:03:32.097Z,21.40
2019-05-14T05:04:32.134Z,21.90
2019-05-14T05:05:32.087Z,21.90
2019-05-14T05:06:32.067Z,21.40
2019-05-14T05:07:32.057Z,22.00
2019-05-14T05:08:32.056Z,21.60
2019-05-14T05:09:32.024Z,22.20
2019-05-14T05:10:32.049Z,21.50
2019-05-14T05:11:32.004Z,21.90
2019-05-14T05:12:32.012Z,21.00
2019-05-14T05:13:31.979Z,20.80
2019-05-14T05:14:31.968Z,21.00
2019-05-14T05:15:31.968Z,21.70
2019-05-14T05:16:31.959Z,21.70
2019-05-14T05:17:44.155Z,21.40
2019-05-14T05:18:32.927Z,21.30
2019-05-14T05:19:31.923Z,21.40
2019-05-14T05:20:31.907Z,20.90
2019-05-14T05:21:31.902Z,21.10
2019-05-14T05:22:31.879Z,20.90
2019-05-14T05:23:31.873Z,21.00
2019-05-14T05:24:31.857Z,21.40
2019-05-14T05:25:31.851Z,21.30
2019-05-14T05:26:31.849Z,21.20
2019-05-14T05:27:31.823Z,21.60
2019-05-14T05:28:31.817Z,21.20
2019-05-14T05:29:31.801Z,21.00
2019-05-14T05:30:31.792Z,21.20
2019-05-14T05:31:31.813Z,21.40
2019-05-14T05:32:31.792Z,21.40
2019-05-14T05:33:31.757Z,21.60
2019-05-14T05:34:31.752Z,20.80
2019-05-14T05:35:31.739Z,21.70
2019-05-14T05:36:31.729Z,21.10
2019-05-14T05:37:31.736Z,21.30
2019-05-14T05:38:31.709Z,21.20
2019-05-14T05:39:31.695Z,21.40
2019-05-14T05:40:31.683Z,21.30
2019-05-14T05:41:31.705Z,20.90
2019-05-14T05:42:31.657Z,21.50
2019-05-14T05:43:31.677Z,21.00
2019-05-14T05:44:31.634Z,21.30
2019-05-14T05:45:31.623Z,21.00
2019-05-14T05:46:31.613Z,20.30
2019-05-14T05:47:31.612Z,21.60
2019-05-14T05:48:31.596Z,21.20
2019-05-14T05:49:31.585Z,21.20
2019-05-14T05:50:31.568Z,20.70
2019-05-14T05:51:31.560Z,21.40
2019-05-14T05:52:31.559Z,20.90
2019-05-14T05:53:31.535Z,20.50
2019-05-14T05:54:31.549Z,20.80
2019-05-14T05:55:31.527Z,21.10
2019-05-14T05:56:31.507Z,20.80
2019-05-14T05:57:31.518Z,20.80
2019-05-14T05:58:31.487Z,20.80
2019-05-14T05:59:31.509Z,20.50
2019-05-14T06:00:31.472Z,21.30
2019-05-14T06:01:41.718Z,21.30
2019-05-14T06:02:32.452Z,20.70
2019-05-14T06:03:31.430Z,20.60
2019-05-14T06:04:31.429Z,21.00
2019-05-14T06:05:31.428Z,21.00
2019-05-14T06:06:31.398Z,20.70
2019-05-14T06:07:31.386Z,21.10
2019-05-14T06:08:31.375Z,21.10
2019-05-14T06:09:31.370Z,21.40
2019-05-14T06:10:31.399Z,21.40
2019-05-14T06:11:31.336Z,21.20
2019-05-14T06:12:31.327Z,20.40
2019-05-14T06:13:31.318Z,21.00
2019-05-14T06:14:31.318Z,20.10
2019-05-14T06:15:44.494Z,20.70
2019-05-14T06:16:32.282Z,20.50
2019-05-14T06:17:31.290Z,20.70
2019-05-14T06:18:34.344Z,20.30
2019-05-14T06:19:31.261Z,20.40
2019-05-14T06:20:31.246Z,21.40
2019-05-14T06:21:31.236Z,20.60
2019-05-14T06:22:31.218Z,20.90
2019-05-14T06:23:31.211Z,20.90
2019-05-14T06:24:31.198Z,21.20
2019-05-14T06:25:31.527Z,20.80
2019-05-14T06:26:31.185Z,20.90
2019-05-14T06:27:31.165Z,21.30
2019-05-14T06:28:33.600Z,21.10
2019-05-14T06:29:31.145Z,21.50
2019-05-14T06:30:31.124Z,21.00
2019-05-14T06:31:31.130Z,20.30
2019-05-14T06:32:31.132Z,21.20
2019-05-14T06:33:31.094Z,20.40
2019-05-14T06:34:31.092Z,20.50
2019-05-14T06:35:31.101Z,20.70
2019-05-14T06:36:31.069Z,20.40
2019-05-14T06:37:31.050Z,20.80
2019-05-14T06:38:31.033Z,21.20
2019-05-14T06:39:31.030Z,20.80
2019-05-14T06:40:31.016Z,20.50
2019-05-14T06:41:31.011Z,20.90
2019-05-14T06:42:30.985Z,20.70
2019-05-14T06:43:31.001Z,20.80
2019-05-14T06:44:30.963Z,21.10
2019-05-14T06:45:30.968Z,20.50
2019-05-14T06:46:30.954Z,21.40
2019-05-14T06:47:30.930Z,21.70
2019-05-14T06:48:34.578Z,21.00
2019-05-14T06:49:30.910Z,21.40
2019-05-14T06:50:30.899Z,21.40
2019-05-14T06:51:30.896Z,21.40
2019-05-14T06:52:30.870Z,21.10
2019-05-14T06:53:30.864Z,21.40
2019-05-14T06:54:30.849Z,21.50
2019-05-14T06:55:30.842Z,21.70
2019-05-14T06:56:30.834Z,21.00
2019-05-14T06:57:30.818Z,20.90
2019-05-14T06:58:30.811Z,20.80
2019-05-14T06:59:30.794Z,20.70
2019-05-14T07:00:30.788Z,20.70
2019-05-14T07:01:30.769Z,20.50
2019-05-14T07:02:30.757Z,21.00
2019-05-14T07:03:30.764Z,21.20
2019-05-14T07:04:30.735Z,21.40
2019-05-14T07:05:30.725Z,21.80
2019-05-14T07:06:30.711Z,21.50
2019-05-14T07:07:30.739Z,20.50
2019-05-14T07:08:30.711Z,20.40
2019-05-14T07:09:30.702Z,21.00
2019-05-14T07:10:30.665Z,20.10
2019-05-14T07:11:30.662Z,20.60
2019-05-14T07:12:30.657Z,20.80
2019-05-14T07:13:30.674Z,20.70
2019-05-14T07:14:30.639Z,20.10
2019-05-14T07:15:30.609Z,21.00
2019-05-14T07:16:30.603Z,20.60
2019-05-14T07:17:30.594Z,20.60
2019-05-14T07:18:45.634Z,20.30
2019-05-14T07:19:31.569Z,21.40
2019-05-14T07:20:30.559Z,20.50
2019-05-14T07:21:30.552Z,20.40
2019-05-14T07:22:30.541Z,20.90
2019-05-14T07:23:30.550Z,21.30
2019-05-14T07:24:30.514Z,20.60
2019-05-14T07:25:30.501Z,20.20
2019-05-14T07:26:30.485Z,20.30
2019-05-14T07:27:30.483Z,20.10
2019-05-14T07:28:30.463Z,20.50
2019-05-14T07:29:30.464Z,20.80
2019-05-14T07:30:30.445Z,20.90
2019-05-14T07:31:30.438Z,20.60
2019-05-14T07:32:30.425Z,19.70
2019-05-14T07:33:30.408Z,19.60
2019-05-14T07:34:30.438Z,20.20
2019-05-14T07:35:30.384Z,20.70
2019-05-14T07:36:30.380Z,20.30
2019-05-14T07:37:30.366Z,20.40
2019-05-14T07:38:30.359Z,20.10
2019-05-14T07:39:30.355Z,19.70
2019-05-14T07:40:30.347Z,19.70
2019-05-14T07:41:30.317Z,20.40
2019-05-14T07:42:30.311Z,20.10
2019-05-14T07:43:30.294Z,20.20
2019-05-14T07:44:30.318Z,20.00
2019-05-14T07:45:33.225Z,19.20
2019-05-14T07:46:30.261Z,19.90
2019-05-14T07:47:30.257Z,19.70
2019-05-14T07:48:30.248Z,19.80
2019-05-14T07:49:30.228Z,19.90
2019-05-14T07:50:30.230Z,19.90
2019-05-14T07:51:30.213Z,19.70
2019-05-14T07:52:30.205Z,20.00
2019-05-14T07:53:38.715Z,19.50
2019-05-14T07:54:31.174Z,20.00
2019-05-14T07:55:30.161Z,20.30
2019-05-14T07:56:30.211Z,19.80
2019-05-14T07:57:30.150Z,19.90
2019-05-14T07:58:30.132Z,19.90
2019-05-14T07:59:30.121Z,20.00
2019-05-14T08:00:30.106Z,20.00
2019-05-14T08:01:30.097Z,20.10
2019-05-14T08:02:30.101Z,19.80
2019-05-14T08:03:30.088Z,19.90
2019-05-14T08:04:30.066Z,19.60
2019-05-14T08:05:30.059Z,19.60
2019-05-14T08:06:30.045Z,19.80
2019-05-14T08:07:30.081Z,19.80
2019-05-14T08:08:30.022Z,19.70
2019-05-14T08:09:30.014Z,19.70
2019-05-14T08:10:30.005Z,20.30
2019-05-14T08:11:30.001Z,21.30
2019-05-14T08:12:29.979Z,20.60
2019-05-14T08:13:29.969Z,20.40
2019-05-14T08:14:40.799Z,19.60
2019-05-14T08:15:30.939Z,19.70
2019-05-14T08:16:29.936Z,20.30
2019-05-14T08:17:29.957Z,20.50
2019-05-14T08:18:29.915Z,20.20
2019-05-14T08:19:31.529Z,19.90
2019-05-14T08:20:29.886Z,19.70
2019-05-14T08:21:29.875Z,19.60
2019-05-14T08:22:29.865Z,19.20
2019-05-14T08:23:29.895Z,19.30
2019-05-14T08:24:30.153Z,19.00
2019-05-14T08:25:29.832Z,19.50
2019-05-14T08:26:29.830Z,19.90
2019-05-14T08:27:31.251Z,19.50
2019-05-14T08:28:29.803Z,19.20
2019-05-14T08:29:29.808Z,19.70
2019-05-14T08:30:29.792Z,19.40
2019-05-14T08:31:29.773Z,19.00
2019-05-14T08:32:29.761Z,19.10
2019-05-14T08:33:29.776Z,18.80
2019-05-14T08:34:32.318Z,19.10
2019-05-14T08:35:33.987Z,19.50
2019-05-14T08:36:30.716Z,19.10
2019-05-14T08:37:29.716Z,18.70
2019-05-14T08:38:29.697Z,19.10
2019-05-14T08:39:29.679Z,19.20
2019-05-14T08:40:29.682Z,18.50
2019-05-14T08:41:29.670Z,18.90
2019-05-14T08:42:34.016Z,18.60
2019-05-14T08:43:29.638Z,18.60
2019-05-14T08:44:29.625Z,18.30
2019-05-14T08:45:29.624Z,18.10
2019-05-14T08:46:29.610Z,18.40
2019-05-14T08:47:29.598Z,18.70
2019-05-14T08:48:29.851Z,19.00
2019-05-14T08:49:39.157Z,18.90
2019-05-14T08:50:30.567Z,18.90
2019-05-14T08:51:29.843Z,19.10
2019-05-14T08:52:29.548Z,18.30
2019-05-14T08:53:29.523Z,19.00
2019-05-14T08:54:29.517Z,19.00
2019-05-14T08:55:29.727Z,18.30
2019-05-14T08:56:29.509Z,18.80
2019-05-14T08:57:29.532Z,18.30
2019-05-14T08:58:30.218Z,19.60
2019-05-14T08:59:29.460Z,18.90
2019-05-14T09:00:29.446Z,18.50
2019-05-14T09:01:29.486Z,19.00
2019-05-14T09:02:29.434Z,19.20
2019-05-14T09:03:29.426Z,18.50
2019-05-14T09:04:30.618Z,18.00
2019-05-14T09:05:29.401Z,18.40
2019-05-14T09:06:29.381Z,18.00
2019-05-14T09:07:29.382Z,18.60
2019-05-14T09:08:29.361Z,18.30
2019-05-14T09:09:29.353Z,18.40
2019-05-14T09:10:29.333Z,18.60
2019-05-14T09:11:35.647Z,18.70
2019-05-14T09:12:30.329Z,18.40
2019-05-14T09:13:29.299Z,18.70
2019-05-14T09:14:29.324Z,18.70
2019-05-14T09:15:29.276Z,18.30
2019-05-14T09:16:41.891Z,18.60
2019-05-14T09:17:30.278Z,19.10
2019-05-14T09:18:29.304Z,19.00
2019-05-14T09:19:29.243Z,18.60
2019-05-14T09:20:29.237Z,19.00
2019-05-14T09:21:29.743Z,18.70
2019-05-14T09:22:29.220Z,18.30
2019-05-14T09:23:29.197Z,18.40
2019-05-14T09:24:29.528Z,18.70
2019-05-14T09:25:29.318Z,18.40
2019-05-14T09:26:29.160Z,18.70
2019-05-14T09:27:29.362Z,18.40
2019-05-14T09:28:29.136Z,18.60
2019-05-14T09:29:30.078Z,18.40
2019-05-14T09:30:29.155Z,18.50
2019-05-14T09:31:29.577Z,18.70
2019-05-14T09:32:29.300Z,18.30
2019-05-14T09:33:29.805Z,18.70
2019-05-14T09:34:29.274Z,19.10
2019-05-14T09:35:29.327Z,18.60
2019-05-14T09:36:29.243Z,18.40
2019-05-14T09:37:29.062Z,18.70
2019-05-14T09:38:29.426Z,18.70
2019-05-14T09:39:29.228Z,19.00
2019-05-14T09:40:29.194Z,18.50
2019-05-14T09:41:30.925Z,18.70
2019-05-14T09:42:28.984Z,18.90
2019-05-14T09:43:28.967Z,18.60
2019-05-14T09:44:29.443Z,18.80
2019-05-14T09:45:28.952Z,19.00
2019-05-14T09:46:29.075Z,19.30
2019-05-14T09:47:28.928Z,19.20
2019-05-14T09:48:28.912Z,18.80
2019-05-14T09:49:28.908Z,19.00
2019-05-14T09:50:29.236Z,18.40
2019-05-14T09:51:28.962Z,19.90
2019-05-14T09:52:29.473Z,18.70
2019-05-14T09:53:29.027Z,18.60
2019-05-14T09:54:28.953Z,18.20
2019-05-14T09:55:28.836Z,18.70
2019-05-14T09:56:29.218Z,19.80
2019-05-14T09:57:28.821Z,18.90
2019-05-14T09:58:28.819Z,18.50
2019-05-14T09:59:28.802Z,19.00
2019-05-14T10:00:28.789Z,18.50
2019-05-14T10:01:28.783Z,18.70
2019-05-14T10:02:28.764Z,18.70
2019-05-14T10:03:28.751Z,18.80
2019-05-14T10:04:28.736Z,18.30
2019-05-14T10:05:28.724Z,19.10
2019-05-14T10:06:28.728Z,19.10
2019-05-14T10:07:28.835Z,18.30
2019-05-14T10:08:28.713Z,19.10
2019-05-14T10:09:29.081Z,18.70
2019-05-14T10:10:30.472Z,19.20
2019-05-14T10:11:28.949Z,19.00
2019-05-14T10:12:28.660Z,18.20
2019-05-14T10:13:28.639Z,18.50
2019-05-14T10:14:29.824Z,19.00
2019-05-14T10:15:28.795Z,18.80
2019-05-14T10:16:29.137Z,18.70
2019-05-14T10:17:29.079Z,19.00
2019-05-14T10:18:28.639Z,18.80
2019-05-14T10:19:29.661Z,18.70
2019-05-14T10:20:40.418Z,18.80
2019-05-14T10:21:29.582Z,18.90
2019-05-14T10:22:28.642Z,18.70
2019-05-14T10:23:28.624Z,18.40
2019-05-14T10:24:29.109Z,18.50
2019-05-14T10:25:28.815Z,18.60
2019-05-14T10:26:28.948Z,18.40
2019-05-14T10:27:28.532Z,18.90
2019-05-14T10:28:28.971Z,18.30
2019-05-14T10:29:28.694Z,18.80
2019-05-14T10:30:28.700Z,18.90
2019-05-14T10:31:29.148Z,18.90
2019-05-14T10:32:29.474Z,19.10
2019-05-14T10:33:28.873Z,19.00
2019-05-14T10:34:28.796Z,19.90
2019-05-14T10:35:28.614Z,19.20
2019-05-14T10:36:30.048Z,19.10
2019-05-14T10:37:28.928Z,18.70
2019-05-14T10:38:29.592Z,19.50
2019-05-14T10:39:29.815Z,19.60
2019-05-14T10:40:29.233Z,19.10
2019-05-14T10:41:29.012Z,18.70
2019-05-14T10:42:29.345Z,18.90
2019-05-14T10:43:29.002Z,18.60
2019-05-14T10:44:29.263Z,18.70
2019-05-14T10:45:28.925Z,18.90
2019-05-14T10:46:29.037Z,19.10
2019-05-14T10:47:29.221Z,18.80
2019-05-14T10:48:29.090Z,18.90
2019-05-14T10:49:29.992Z,19.20
2019-05-14T10:50:28.972Z,19.30
2019-05-14T10:51:28.437Z,19.10
2019-05-14T10:52:28.854Z,18.30
2019-05-14T10:53:29.075Z,17.90
2019-05-14T10:54:29.298Z,18.20
2019-05-14T10:55:28.179Z,18.40
2019-05-14T10:56:29.787Z,18.60
2019-05-14T10:57:28.962Z,18.50
2019-05-14T10:58:29.135Z,18.30
2019-05-14T10:59:29.376Z,19.00
2019-05-14T11:00:28.443Z,18.40
2019-05-14T11:01:28.579Z,18.50
2019-05-14T11:02:29.208Z,18.40
2019-05-14T11:03:30.137Z,18.80
2019-05-14T11:04:28.764Z,18.90
2019-05-14T11:05:28.235Z,18.60
2019-05-14T11:06:29.390Z,18.90
2019-05-14T11:07:29.224Z,18.90
2019-05-14T11:08:29.668Z,18.90
2019-05-14T11:09:28.639Z,18.80
2019-05-14T11:10:29.785Z,19.50
2019-05-14T11:11:29.033Z,19.00
2019-05-14T11:12:29.663Z,18.50
2019-05-14T11:13:29.369Z,18.60
2019-05-14T11:14:31.665Z,18.50
2019-05-14T11:15:28.510Z,18.60
2019-05-14T11:16:28.401Z,18.60
2019-05-14T11:17:29.143Z,18.80
2019-05-14T11:18:29.086Z,18.70
2019-05-14T11:19:28.211Z,18.60
2019-05-14T11:20:31.122Z,18.20
2019-05-14T11:21:30.224Z,18.10
2019-05-14T11:22:28.924Z,18.90
2019-05-14T11:23:29.804Z,19.40
2019-05-14T11:24:29.532Z,18.70
2019-05-14T11:25:28.758Z,18.00
2019-05-14T11:26:29.445Z,18.50
2019-05-14T11:27:29.242Z,18.80
2019-05-14T11:28:28.580Z,19.00
2019-05-14T11:29:29.558Z,18.20
2019-05-14T11:30:28.826Z,18.10
2019-05-14T11:31:29.898Z,18.50
2019-05-14T11:32:29.116Z,17.90
2019-05-14T11:33:29.653Z,18.10
2019-05-14T11:34:28.738Z,19.00
2019-05-14T11:35:28.806Z,18.60
2019-05-14T11:36:29.274Z,18.50
2019-05-14T11:37:28.205Z,19.00
2019-05-14T11:38:36.586Z,19.90
2019-05-14T11:39:28.992Z,19.40
2019-05-14T11:40:29.329Z,20.20
2019-05-14T11:41:27.654Z,19.10
2019-05-14T11:42:31.409Z,18.90
2019-05-14T11:43:28.719Z,21.20
2019-05-14T11:44:28.568Z,20.30
2019-05-14T11:45:27.612Z,21.20
2019-05-14T11:46:41.705Z,19.80
2019-05-14T11:47:28.614Z,20.20
2019-05-14T11:48:27.613Z,24.60
2019-05-14T11:49:27.568Z,23.10
2019-05-14T11:50:28.714Z,21.60
2019-05-14T11:51:56.138Z,19.90
2019-05-14T11:52:28.801Z,18.50
2019-05-14T11:53:27.532Z,18.80
2019-05-14T11:54:29.199Z,19.10
2019-05-14T11:55:27.501Z,19.10
2019-05-14T11:56:29.449Z,19.80
2019-05-14T11:57:27.479Z,19.30
2019-05-14T11:58:29.375Z,20.00
2019-05-14T11:59:28.490Z,21.40
2019-05-14T12:00:29.487Z,19.70
2019-05-14T12:01:29.810Z,19.90
2019-05-14T12:02:29.006Z,20.80
2019-05-14T12:03:28.568Z,19.40
2019-05-14T12:04:28.434Z,19.10
2019-05-14T12:05:30.249Z,20.10
2019-05-14T12:06:27.377Z,18.50
2019-05-14T12:07:28.041Z,19.30
2019-05-14T12:08:28.779Z,20.20
2019-05-14T12:09:28.392Z,20.20
2019-05-14T12:10:29.281Z,19.10
2019-05-14T12:11:29.034Z,19.50
2019-05-14T12:12:28.799Z,19.10
2019-05-14T12:13:32.547Z,19.40
2019-05-14T12:14:28.294Z,19.70
2019-05-14T12:15:27.280Z,19.90
2019-05-14T12:16:29.110Z,19.20
2019-05-14T12:17:29.472Z,19.70
2019-05-14T12:18:29.179Z,19.70
2019-05-14T12:19:28.367Z,19.60
2019-05-14T12:20:29.616Z,19.80
2019-05-14T12:21:28.835Z,20.00
2019-05-14T12:22:28.623Z,20.00
2019-05-14T12:23:29.627Z,19.50
2019-05-14T12:24:29.170Z,19.60
2019-05-14T12:25:29.380Z,19.50
2019-05-14T12:26:28.197Z,20.00
2019-05-14T12:27:27.142Z,19.40
2019-05-14T12:28:29.120Z,19.30
2019-05-14T12:29:29.119Z,19.40
2019-05-14T12:30:28.680Z,19.40
2019-05-14T12:31:28.924Z,19.60
2019-05-14T12:32:29.394Z,19.70
2019-05-14T12:33:30.850Z,19.40
2019-05-14T12:34:29.599Z,19.40
2019-05-14T12:35:29.188Z,19.10
2019-05-14T12:36:29.229Z,19.50
2019-05-14T12:37:28.919Z,19.40
2019-05-14T12:38:29.552Z,19.20
2019-05-14T12:39:29.333Z,19.50
2019-05-14T12:40:28.913Z,19.40
2019-05-14T12:41:29.034Z,19.50
2019-05-14T12:42:29.453Z,19.60
2019-05-14T12:43:28.148Z,19.50
2019-05-14T12:44:29.054Z,19.80
2019-05-14T12:45:29.609Z,19.70
2019-05-14T12:46:29.254Z,19.60
2019-05-14T12:47:29.092Z,20.00
2019-05-14T12:48:29.550Z,19.90
2019-05-14T12:49:26.895Z,19.90
2019-05-14T12:50:26.890Z,19.80
2019-05-14T12:51:26.904Z,19.50
2019-05-14T12:52:29.532Z,20.30